sensor_id;sensor_type;location;lat;lon;timestamp;pressure;altitude;pressure_sealevel;temperature;humidity
6393;BME280;3229;42.674;23.282;2022-09-27T00:01:58;93730.09;;;19.16;69.06
6393;BME280;3229;42.674;23.282;2022-09-27T00:04:25;93726.50;;;19.17;69.30
6393;BME280;3229;42.674;23.282;2022-09-27T00:06:52;93717.94;;;19.16;69.76
6393;BME280;3229;42.674;23.282;2022-09-27T00:09:19;93731.13;;;19.15;69.71
6393;BME280;3229;42.674;23.282;2022-09-27T00:11:46;93727.75;;;19.14;69.79
6393;BME280;3229;42.674;23.282;2022-09-27T00:14:14;93745.50;;;19.11;69.75
6393;BME280;3229;42.674;23.282;2022-09-27T00:16:43;93748.66;;;19.13;69.59
6393;BME280;3229;42.674;23.282;2022-09-27T00:19:12;93742.63;;;19.00;69.43
6393;BME280;3229;42.674;23.282;2022-09-27T00:21:40;93771.19;;;19.12;69.55
6393;BME280;3229;42.674;23.282;2022-09-27T00:24:10;93746.16;;;19.06;69.55
6393;BME280;3229;42.674;23.282;2022-09-27T00:26:37;93743.19;;;19.02;69.46
6393;BME280;3229;42.674;23.282;2022-09-27T00:29:04;93761.84;;;19.11;69.75
6393;BME280;3229;42.674;23.282;2022-09-27T00:31:32;93733.75;;;19.08;69.63
6393;BME280;3229;42.674;23.282;2022-09-27T00:34:01;93729.41;;;19.09;69.77
6393;BME280;3229;42.674;23.282;2022-09-27T00:36:29;93737.59;;;19.05;70.33
6393;BME280;3229;42.674;23.282;2022-09-27T00:38:56;93729.84;;;18.99;70.44
6393;BME280;3229;42.674;23.282;2022-09-27T00:41:27;93731.03;;;19.03;70.26
6393;BME280;3229;42.674;23.282;2022-09-27T00:43:56;93733.63;;;19.03;70.13
6393;BME280;3229;42.674;23.282;2022-09-27T00:46:27;93719.94;;;18.96;70.27
6393;BME280;3229;42.674;23.282;2022-09-27T00:49:06;93712.31;;;19.01;70.26
6393;BME280;3229;42.674;23.282;2022-09-27T00:51:35;93716.72;;;19.00;70.14
6393;BME280;3229;42.674;23.282;2022-09-27T00:54:04;93721.28;;;18.98;70.34
6393;BME280;3229;42.674;23.282;2022-09-27T00:56:33;93713.38;;;18.93;70.24
6393;BME280;3229;42.674;23.282;2022-09-27T00:59:05;93706.16;;;18.95;70.26
6393;BME280;3229;42.674;23.282;2022-09-27T01:01:34;93699.69;;;18.86;70.81
6393;BME280;3229;42.674;23.282;2022-09-27T01:04:05;93715.41;;;18.91;70.82
6393;BME280;3229;42.674;23.282;2022-09-27T01:06:34;93716.59;;;18.89;70.50
6393;BME280;3229;42.674;23.282;2022-09-27T01:09:02;93716.22;;;18.85;71.04
6393;BME280;3229;42.674;23.282;2022-09-27T01:11:37;93717.81;;;18.86;70.99
6393;BME280;3229;42.674;23.282;2022-09-27T01:14:30;93711.28;;;18.84;71.39
6393;BME280;3229;42.674;23.282;2022-09-27T01:17:09;93691.19;;;18.79;71.88
6393;BME280;3229;42.674;23.282;2022-09-27T01:20:03;93683.03;;;18.75;71.89
6393;BME280;3229;42.674;23.282;2022-09-27T01:22:37;93696.22;;;18.74;72.01
6393;BME280;3229;42.674;23.282;2022-09-27T01:25:24;93686.09;;;18.66;72.04
6393;BME280;3229;42.674;23.282;2022-09-27T01:28:08;93705.19;;;18.71;72.02
6393;BME280;3229;42.674;23.282;2022-09-27T01:30:46;93708.00;;;18.70;72.24
6393;BME280;3229;42.674;23.282;2022-09-27T01:33:23;93702.00;;;18.69;72.06
6393;BME280;3229;42.674;23.282;2022-09-27T01:36:07;93715.78;;;18.70;71.88
6393;BME280;3229;42.674;23.282;2022-09-27T01:38:46;93698.59;;;18.69;72.04
6393;BME280;3229;42.674;23.282;2022-09-27T01:41:26;93716.94;;;18.67;72.35
6393;BME280;3229;42.674;23.282;2022-09-27T01:43:59;93702.25;;;18.61;71.94
6393;BME280;3229;42.674;23.282;2022-09-27T01:46:34;93713.56;;;18.67;72.13
6393;BME280;3229;42.674;23.282;2022-09-27T01:49:07;93712.97;;;18.65;72.23
6393;BME280;3229;42.674;23.282;2022-09-27T01:51:39;93712.00;;;18.66;72.07
6393;BME280;3229;42.674;23.282;2022-09-27T01:54:14;93695.66;;;18.65;72.01
6393;BME280;3229;42.674;23.282;2022-09-27T01:56:46;93696.44;;;18.66;72.21
6393;BME280;3229;42.674;23.282;2022-09-27T01:59:18;93690.91;;;18.62;72.10
6393;BME280;3229;42.674;23.282;2022-09-27T02:01:50;93681.31;;;18.63;72.28
6393;BME280;3229;42.674;23.282;2022-09-27T02:04:22;93686.34;;;18.58;72.33
6393;BME280;3229;42.674;23.282;2022-09-27T02:06:53;93678.00;;;18.55;72.55
6393;BME280;3229;42.674;23.282;2022-09-27T02:09:26;93681.56;;;18.61;72.58
6393;BME280;3229;42.674;23.282;2022-09-27T02:12:00;93674.75;;;18.60;72.44
6393;BME280;3229;42.674;23.282;2022-09-27T02:14:33;93655.84;;;18.60;72.52
6393;BME280;3229;42.674;23.282;2022-09-27T02:17:08;93669.59;;;18.60;72.86
6393;BME280;3229;42.674;23.282;2022-09-27T02:19:51;93654.31;;;18.52;72.62
6393;BME280;3229;42.674;23.282;2022-09-27T02:22:24;93642.97;;;18.53;72.59
6393;BME280;3229;42.674;23.282;2022-09-27T02:24:56;93634.75;;;18.56;72.70
6393;BME280;3229;42.674;23.282;2022-09-27T02:27:27;93628.59;;;18.57;72.56
6393;BME280;3229;42.674;23.282;2022-09-27T02:29:59;93619.44;;;18.54;72.78
6393;BME280;3229;42.674;23.282;2022-09-27T02:32:29;93620.84;;;18.57;72.83
6393;BME280;3229;42.674;23.282;2022-09-27T02:34:59;93627.00;;;18.56;72.99
6393;BME280;3229;42.674;23.282;2022-09-27T02:37:27;93619.06;;;18.51;73.09
6393;BME280;3229;42.674;23.282;2022-09-27T02:40:00;93578.72;;;18.43;73.11
6393;BME280;3229;42.674;23.282;2022-09-27T02:42:29;93633.81;;;18.50;73.45
6393;BME280;3229;42.674;23.282;2022-09-27T02:44:56;93616.75;;;18.43;73.39
6393;BME280;3229;42.674;23.282;2022-09-27T02:47:37;93643.38;;;18.50;73.27
6393;BME280;3229;42.674;23.282;2022-09-27T02:50:28;93623.47;;;18.50;73.38
6393;BME280;3229;42.674;23.282;2022-09-27T02:53:03;93635.25;;;18.46;73.36
6393;BME280;3229;42.674;23.282;2022-09-27T02:55:41;93639.84;;;18.44;73.69
6393;BME280;3229;42.674;23.282;2022-09-27T02:58:20;93652.34;;;18.47;73.65
6393;BME280;3229;42.674;23.282;2022-09-27T03:00:56;93643.59;;;18.48;73.67
6393;BME280;3229;42.674;23.282;2022-09-27T03:03:32;93604.41;;;18.45;73.46
6393;BME280;3229;42.674;23.282;2022-09-27T03:06:03;93608.34;;;18.47;73.56
6393;BME280;3229;42.674;23.282;2022-09-27T03:08:31;93601.03;;;18.44;73.45
6393;BME280;3229;42.674;23.282;2022-09-27T03:10:58;93577.50;;;18.46;73.22
6393;BME280;3229;42.674;23.282;2022-09-27T03:13:25;93563.91;;;18.32;73.32
6393;BME280;3229;42.674;23.282;2022-09-27T03:15:52;93576.50;;;18.47;73.35
6393;BME280;3229;42.674;23.282;2022-09-27T03:18:19;93573.13;;;18.46;73.57
6393;BME280;3229;42.674;23.282;2022-09-27T03:20:47;93539.66;;;18.26;73.56
6393;BME280;3229;42.674;23.282;2022-09-27T03:23:14;93564.34;;;18.47;73.43
6393;BME280;3229;42.674;23.282;2022-09-27T03:25:41;93569.97;;;18.44;73.55
6393;BME280;3229;42.674;23.282;2022-09-27T03:28:08;93561.81;;;18.41;73.37
6393;BME280;3229;42.674;23.282;2022-09-27T03:30:35;93573.72;;;18.48;73.39
6393;BME280;3229;42.674;23.282;2022-09-27T03:33:02;93571.91;;;18.49;73.55
6393;BME280;3229;42.674;23.282;2022-09-27T03:35:29;93577.88;;;18.49;73.30
6393;BME280;3229;42.674;23.282;2022-09-27T03:37:57;93579.44;;;18.50;73.69
6393;BME280;3229;42.674;23.282;2022-09-27T03:40:24;93568.31;;;18.50;73.44
6393;BME280;3229;42.674;23.282;2022-09-27T03:42:51;93562.91;;;18.51;73.62
6393;BME280;3229;42.674;23.282;2022-09-27T03:45:18;93559.81;;;18.43;73.29
6393;BME280;3229;42.674;23.282;2022-09-27T03:47:45;93564.72;;;18.51;73.77
6393;BME280;3229;42.674;23.282;2022-09-27T03:50:13;93520.53;;;18.27;73.80
6393;BME280;3229;42.674;23.282;2022-09-27T03:52:41;93569.69;;;18.52;73.67
6393;BME280;3229;42.674;23.282;2022-09-27T03:55:11;93581.03;;;18.51;73.90
6393;BME280;3229;42.674;23.282;2022-09-27T03:57:38;93568.09;;;18.51;73.90
6393;BME280;3229;42.674;23.282;2022-09-27T04:00:06;93566.28;;;18.52;73.92
6393;BME280;3229;42.674;23.282;2022-09-27T04:02:33;93570.53;;;18.46;73.68
6393;BME280;3229;42.674;23.282;2022-09-27T04:05:00;93572.28;;;18.52;73.85
6393;BME280;3229;42.674;23.282;2022-09-27T04:07:27;93574.88;;;18.52;73.84
6393;BME280;3229;42.674;23.282;2022-09-27T04:09:55;93568.53;;;18.48;74.00
6393;BME280;3229;42.674;23.282;2022-09-27T04:12:23;93557.53;;;18.53;74.05
6393;BME280;3229;42.674;23.282;2022-09-27T04:14:50;93556.56;;;18.47;74.12
6393;BME280;3229;42.674;23.282;2022-09-27T04:17:17;93566.88;;;18.54;73.96
6393;BME280;3229;42.674;23.282;2022-09-27T04:19:44;93561.34;;;18.50;74.08
6393;BME280;3229;42.674;23.282;2022-09-27T04:22:11;93565.88;;;18.55;73.89
6393;BME280;3229;42.674;23.282;2022-09-27T04:24:39;93571.03;;;18.55;74.00
6393;BME280;3229;42.674;23.282;2022-09-27T04:27:06;93565.03;;;18.61;75.95
6393;BME280;3229;42.674;23.282;2022-09-27T04:29:35;93539.19;;;18.54;75.81
6393;BME280;3229;42.674;23.282;2022-09-27T04:32:01;93557.78;;;18.70;75.88
6393;BME280;3229;42.674;23.282;2022-09-27T04:34:29;93553.56;;;18.69;76.23
6393;BME280;3229;42.674;23.282;2022-09-27T04:37:13;93571.31;;;18.72;76.35
6393;BME280;3229;42.674;23.282;2022-09-27T04:39:40;93560.94;;;18.72;76.30
6393;BME280;3229;42.674;23.282;2022-09-27T04:42:06;93558.34;;;18.72;76.27
6393;BME280;3229;42.674;23.282;2022-09-27T04:44:35;93549.56;;;18.73;76.25
6393;BME280;3229;42.674;23.282;2022-09-27T04:47:02;93567.28;;;18.94;85.32
6393;BME280;3229;42.674;23.282;2022-09-27T04:49:29;93551.00;;;19.05;85.36
6393;BME280;3229;42.674;23.282;2022-09-27T04:51:56;93573.59;;;19.35;84.81
6393;BME280;3229;42.674;23.282;2022-09-27T04:54:23;93571.31;;;19.57;83.89
6393;BME280;3229;42.674;23.282;2022-09-27T04:56:50;93570.47;;;19.75;83.12
6393;BME280;3229;42.674;23.282;2022-09-27T04:59:17;93570.84;;;19.90;82.35
6393;BME280;3229;42.674;23.282;2022-09-27T05:01:45;93565.47;;;20.03;81.51
6393;BME280;3229;42.674;23.282;2022-09-27T05:04:12;93567.28;;;20.15;80.55
6393;BME280;3229;42.674;23.282;2022-09-27T05:06:39;93548.22;;;20.21;80.21
6393;BME280;3229;42.674;23.282;2022-09-27T05:09:06;93535.47;;;20.31;79.87
6393;BME280;3229;42.674;23.282;2022-09-27T05:11:33;93548.47;;;20.43;79.59
6393;BME280;3229;42.674;23.282;2022-09-27T05:14:02;93547.91;;;20.52;79.74
6393;BME280;3229;42.674;23.282;2022-09-27T05:16:29;93544.97;;;20.61;80.23
6393;BME280;3229;42.674;23.282;2022-09-27T05:18:57;93539.44;;;20.69;80.46
6393;BME280;3229;42.674;23.282;2022-09-27T05:21:24;93529.34;;;20.72;79.33
6393;BME280;3229;42.674;23.282;2022-09-27T05:23:51;93538.72;;;20.85;79.03
6393;BME280;3229;42.674;23.282;2022-09-27T05:26:18;93537.81;;;20.91;79.04
6393;BME280;3229;42.674;23.282;2022-09-27T05:28:46;93521.28;;;20.97;79.83
6393;BME280;3229;42.674;23.282;2022-09-27T05:31:13;93518.31;;;21.05;79.31
6393;BME280;3229;42.674;23.282;2022-09-27T05:33:40;93528.28;;;21.09;78.72
6393;BME280;3229;42.674;23.282;2022-09-27T05:36:09;93529.84;;;21.10;78.51
6393;BME280;3229;42.674;23.282;2022-09-27T05:38:36;93536.25;;;21.19;78.09
6393;BME280;3229;42.674;23.282;2022-09-27T05:41:04;93553.66;;;21.18;77.44
6393;BME280;3229;42.674;23.282;2022-09-27T05:43:31;93554.13;;;21.15;76.52
6393;BME280;3229;42.674;23.282;2022-09-27T05:45:59;93542.50;;;21.06;76.52
6393;BME280;3229;42.674;23.282;2022-09-27T05:48:26;93543.91;;;20.97;76.24
6393;BME280;3229;42.674;23.282;2022-09-27T05:50:54;93543.47;;;20.88;76.01
6393;BME280;3229;42.674;23.282;2022-09-27T05:53:23;93541.00;;;20.82;76.01
6393;BME280;3229;42.674;23.282;2022-09-27T05:55:50;93537.03;;;20.67;75.82
6393;BME280;3229;42.674;23.282;2022-09-27T05:58:17;93540.47;;;20.56;75.55
6393;BME280;3229;42.674;23.282;2022-09-27T06:00:44;93546.09;;;20.53;75.68
6393;BME280;3229;42.674;23.282;2022-09-27T06:03:12;93548.66;;;20.41;75.66
6393;BME280;3229;42.674;23.282;2022-09-27T06:05:39;93530.94;;;20.15;75.59
6393;BME280;3229;42.674;23.282;2022-09-27T06:08:07;93538.50;;;20.16;75.64
6393;BME280;3229;42.674;23.282;2022-09-27T06:10:36;93554.31;;;20.26;75.61
6393;BME280;3229;42.674;23.282;2022-09-27T06:13:05;93534.44;;;20.20;75.49
6393;BME280;3229;42.674;23.282;2022-09-27T06:15:33;93549.81;;;20.22;75.54
6393;BME280;3229;42.674;23.282;2022-09-27T06:18:05;93544.28;;;20.18;75.42
6393;BME280;3229;42.674;23.282;2022-09-27T06:20:34;93555.78;;;20.22;75.20
6393;BME280;3229;42.674;23.282;2022-09-27T06:23:05;93549.13;;;20.26;75.04
6393;BME280;3229;42.674;23.282;2022-09-27T06:25:33;93557.38;;;20.35;74.78
6393;BME280;3229;42.674;23.282;2022-09-27T06:28:02;93543.47;;;20.41;74.26
6393;BME280;3229;42.674;23.282;2022-09-27T06:30:29;93540.81;;;20.48;74.26
6393;BME280;3229;42.674;23.282;2022-09-27T06:32:58;93543.94;;;20.50;74.23
6393;BME280;3229;42.674;23.282;2022-09-27T06:35:26;93561.34;;;20.49;74.35
6393;BME280;3229;42.674;23.282;2022-09-27T06:37:53;93555.78;;;20.46;74.34
6393;BME280;3229;42.674;23.282;2022-09-27T06:40:21;93531.28;;;20.42;74.23
6393;BME280;3229;42.674;23.282;2022-09-27T06:42:51;93544.25;;;20.42;74.45
6393;BME280;3229;42.674;23.282;2022-09-27T06:45:19;93543.94;;;20.38;74.31
6393;BME280;3229;42.674;23.282;2022-09-27T06:47:46;93548.56;;;20.36;74.29
6393;BME280;3229;42.674;23.282;2022-09-27T06:50:13;93552.41;;;20.34;74.51
6393;BME280;3229;42.674;23.282;2022-09-27T06:52:46;93548.44;;;20.31;74.55
6393;BME280;3229;42.674;23.282;2022-09-27T06:55:13;93528.25;;;20.21;74.61
6393;BME280;3229;42.674;23.282;2022-09-27T06:57:40;93533.75;;;20.25;74.78
6393;BME280;3229;42.674;23.282;2022-09-27T07:00:26;93529.91;;;20.16;74.67
6393;BME280;3229;42.674;23.282;2022-09-27T07:02:54;93550.25;;;20.19;74.76
6393;BME280;3229;42.674;23.282;2022-09-27T07:05:26;93554.06;;;20.16;74.65
6393;BME280;3229;42.674;23.282;2022-09-27T07:07:54;93561.66;;;20.18;74.53
6393;BME280;3229;42.674;23.282;2022-09-27T07:10:23;93550.25;;;20.19;74.44
6393;BME280;3229;42.674;23.282;2022-09-27T07:12:50;93552.59;;;20.20;74.39
6393;BME280;3229;42.674;23.282;2022-09-27T07:15:17;93559.16;;;20.23;74.35
6393;BME280;3229;42.674;23.282;2022-09-27T07:17:47;93561.53;;;20.24;74.55
6393;BME280;3229;42.674;23.282;2022-09-27T07:20:14;93544.16;;;20.25;74.42
6393;BME280;3229;42.674;23.282;2022-09-27T07:22:41;93557.13;;;20.25;74.33
6393;BME280;3229;42.674;23.282;2022-09-27T07:25:08;93564.72;;;20.26;74.36
6393;BME280;3229;42.674;23.282;2022-09-27T07:27:35;93556.34;;;20.24;74.14
6393;BME280;3229;42.674;23.282;2022-09-27T07:30:03;93569.22;;;20.31;74.17
6393;BME280;3229;42.674;23.282;2022-09-27T07:32:31;93565.94;;;20.36;74.01
6393;BME280;3229;42.674;23.282;2022-09-27T07:35:01;93513.78;;;20.14;74.00
6393;BME280;3229;42.674;23.282;2022-09-27T07:37:30;93577.56;;;20.45;74.01
6393;BME280;3229;42.674;23.282;2022-09-27T07:39:58;93569.00;;;20.44;73.84
6393;BME280;3229;42.674;23.282;2022-09-27T07:42:25;93568.44;;;20.42;74.03
6393;BME280;3229;42.674;23.282;2022-09-27T07:44:53;93570.03;;;20.43;74.01
6393;BME280;3229;42.674;23.282;2022-09-27T07:47:20;93579.16;;;20.46;73.98
6393;BME280;3229;42.674;23.282;2022-09-27T07:49:48;93577.16;;;20.48;73.97
6393;BME280;3229;42.674;23.282;2022-09-27T07:52:17;93575.56;;;20.47;73.98
6393;BME280;3229;42.674;23.282;2022-09-27T07:54:44;93583.56;;;20.45;73.76
6393;BME280;3229;42.674;23.282;2022-09-27T07:57:12;93572.50;;;20.38;73.86
6393;BME280;3229;42.674;23.282;2022-09-27T07:59:39;93559.50;;;20.26;74.16
6393;BME280;3229;42.674;23.282;2022-09-27T08:02:06;93566.28;;;20.27;74.46
6393;BME280;3229;42.674;23.282;2022-09-27T08:04:35;93560.06;;;20.28;74.24
6393;BME280;3229;42.674;23.282;2022-09-27T08:07:02;93549.81;;;20.22;74.72
6393;BME280;3229;42.674;23.282;2022-09-27T08:09:30;93543.59;;;20.23;74.62
6393;BME280;3229;42.674;23.282;2022-09-27T08:11:57;93536.03;;;20.21;74.64
6393;BME280;3229;42.674;23.282;2022-09-27T08:14:24;93547.22;;;20.22;74.63
6393;BME280;3229;42.674;23.282;2022-09-27T08:16:51;93548.78;;;20.23;74.77
6393;BME280;3229;42.674;23.282;2022-09-27T08:19:19;93542.38;;;20.25;74.40
6393;BME280;3229;42.674;23.282;2022-09-27T08:21:46;93543.25;;;20.31;74.36
6393;BME280;3229;42.674;23.282;2022-09-27T08:24:13;93555.56;;;20.36;74.22
6393;BME280;3229;42.674;23.282;2022-09-27T08:26:42;93553.53;;;20.38;73.96
6393;BME280;3229;42.674;23.282;2022-09-27T08:29:09;93555.66;;;20.41;74.38
6393;BME280;3229;42.674;23.282;2022-09-27T08:31:37;93548.59;;;20.48;74.21
6393;BME280;3229;42.674;23.282;2022-09-27T08:34:04;93536.75;;;20.52;73.93
6393;BME280;3229;42.674;23.282;2022-09-27T08:36:31;93527.34;;;20.63;73.89
6393;BME280;3229;42.674;23.282;2022-09-27T08:39:00;93513.53;;;20.86;73.41
6393;BME280;3229;42.674;23.282;2022-09-27T08:41:34;93535.47;;;21.18;73.71
6393;BME280;3229;42.674;23.282;2022-09-27T08:46:54;93534.06;;;21.68;72.81
6393;BME280;3229;42.674;23.282;2022-09-27T08:49:31;93528.84;;;21.85;72.31
6393;BME280;3229;42.674;23.282;2022-09-27T08:52:00;93528.88;;;22.01;71.88
6393;BME280;3229;42.674;23.282;2022-09-27T08:54:35;93531.28;;;22.20;71.20
6393;BME280;3229;42.674;23.282;2022-09-27T08:57:05;93530.69;;;22.35;71.22
6393;BME280;3229;42.674;23.282;2022-09-27T08:59:41;93522.69;;;22.58;70.59
6393;BME280;3229;42.674;23.282;2022-09-27T09:02:16;93511.06;;;22.88;70.15
6393;BME280;3229;42.674;23.282;2022-09-27T09:04:44;93515.34;;;23.16;70.10
6393;BME280;3229;42.674;23.282;2022-09-27T09:07:23;93514.31;;;23.44;69.68
6393;BME280;3229;42.674;23.282;2022-09-27T09:10:00;93510.72;;;23.72;69.15
6393;BME280;3229;42.674;23.282;2022-09-27T09:12:38;93502.88;;;24.04;68.31
6393;BME280;3229;42.674;23.282;2022-09-27T09:15:24;93516.56;;;24.48;67.61
6393;BME280;3229;42.674;23.282;2022-09-27T09:18:07;93518.31;;;24.85;67.01
6393;BME280;3229;42.674;23.282;2022-09-27T09:20:52;93517.16;;;25.13;66.36
6393;BME280;3229;42.674;23.282;2022-09-27T09:23:33;93499.66;;;25.29;66.11
6393;BME280;3229;42.674;23.282;2022-09-27T09:26:11;93517.75;;;25.41;65.55
6393;BME280;3229;42.674;23.282;2022-09-27T09:28:53;93488.69;;;25.47;65.08
6393;BME280;3229;42.674;23.282;2022-09-27T09:31:34;93490.03;;;25.70;64.80
6393;BME280;3229;42.674;23.282;2022-09-27T09:34:09;93494.53;;;25.80;64.71
6393;BME280;3229;42.674;23.282;2022-09-27T09:36:43;93480.13;;;25.88;64.42
6393;BME280;3229;42.674;23.282;2022-09-27T09:39:15;93498.72;;;26.01;63.88
6393;BME280;3229;42.674;23.282;2022-09-27T09:41:52;93493.22;;;26.08;64.01
6393;BME280;3229;42.674;23.282;2022-09-27T09:44:25;93498.72;;;26.17;63.49
6393;BME280;3229;42.674;23.282;2022-09-27T09:46:58;93505.00;;;26.26;62.75
6393;BME280;3229;42.674;23.282;2022-09-27T09:49:29;93488.78;;;26.09;63.04
6393;BME280;3229;42.674;23.282;2022-09-27T09:52:00;93476.72;;;26.13;62.61
6393;BME280;3229;42.674;23.282;2022-09-27T09:54:31;93501.06;;;26.23;62.53
6393;BME280;3229;42.674;23.282;2022-09-27T09:57:04;93512.59;;;26.22;62.50
6393;BME280;3229;42.674;23.282;2022-09-27T09:59:37;93496.59;;;26.24;62.05
6393;BME280;3229;42.674;23.282;2022-09-27T10:02:20;93503.69;;;26.23;61.84
6393;BME280;3229;42.674;23.282;2022-09-27T10:04:49;93490.56;;;26.28;61.97
6393;BME280;3229;42.674;23.282;2022-09-27T10:07:20;93496.59;;;26.29;61.57
6393;BME280;3229;42.674;23.282;2022-09-27T10:09:47;93504.47;;;26.29;61.63
6393;BME280;3229;42.674;23.282;2022-09-27T10:12:15;93489.28;;;26.26;61.63
6393;BME280;3229;42.674;23.282;2022-09-27T10:14:44;93486.63;;;26.36;61.72
6393;BME280;3229;42.674;23.282;2022-09-27T10:17:17;93467.50;;;26.31;61.31
6393;BME280;3229;42.674;23.282;2022-09-27T10:19:45;93464.09;;;26.45;61.02
6393;BME280;3229;42.674;23.282;2022-09-27T10:22:18;93476.41;;;26.60;60.60
6393;BME280;3229;42.674;23.282;2022-09-27T10:24:56;93483.94;;;26.77;60.58
6393;BME280;3229;42.674;23.282;2022-09-27T10:27:24;93482.31;;;26.91;60.29
6393;BME280;3229;42.674;23.282;2022-09-27T10:29:58;93481.22;;;27.02;59.73
6393;BME280;3229;42.674;23.282;2022-09-27T10:32:30;93485.41;;;27.09;59.83
6393;BME280;3229;42.674;23.282;2022-09-27T10:35:20;93483.28;;;27.06;59.74
6393;BME280;3229;42.674;23.282;2022-09-27T10:37:47;93480.69;;;27.00;59.22
6393;BME280;3229;42.674;23.282;2022-09-27T10:40:28;93472.06;;;26.95;59.23
6393;BME280;3229;42.674;23.282;2022-09-27T10:42:56;93473.91;;;26.94;59.16
6393;BME280;3229;42.674;23.282;2022-09-27T10:45:29;93472.31;;;26.98;59.56
6393;BME280;3229;42.674;23.282;2022-09-27T10:48:00;93466.53;;;27.12;58.72
6393;BME280;3229;42.674;23.282;2022-09-27T10:50:28;93455.63;;;27.29;58.66
6393;BME280;3229;42.674;23.282;2022-09-27T10:53:04;93453.22;;;27.37;58.15
6393;BME280;3229;42.674;23.282;2022-09-27T10:55:34;93442.16;;;27.45;58.17
6393;BME280;3229;42.674;23.282;2022-09-27T10:58:02;93425.81;;;27.54;57.80
6393;BME280;3229;42.674;23.282;2022-09-27T11:00:31;93420.31;;;27.55;57.92
6393;BME280;3229;42.674;23.282;2022-09-27T11:03:02;93420.31;;;27.55;57.88
6393;BME280;3229;42.674;23.282;2022-09-27T11:05:33;93420.84;;;27.52;57.37
6393;BME280;3229;42.674;23.282;2022-09-27T11:08:06;93419.81;;;27.48;57.44
6393;BME280;3229;42.674;23.282;2022-09-27T11:11:00;93406.72;;;27.43;57.10
6393;BME280;3229;42.674;23.282;2022-09-27T11:13:28;93412.81;;;27.38;57.38
6393;BME280;3229;42.674;23.282;2022-09-27T11:16:15;93390.63;;;27.15;57.08
6393;BME280;3229;42.674;23.282;2022-09-27T11:18:53;93421.25;;;27.30;57.23
6393;BME280;3229;42.674;23.282;2022-09-27T11:21:32;93403.91;;;27.34;57.03
6393;BME280;3229;42.674;23.282;2022-09-27T11:24:16;93400.50;;;27.34;57.10
6393;BME280;3229;42.674;23.282;2022-09-27T11:26:54;93405.16;;;27.42;56.98
6393;BME280;3229;42.674;23.282;2022-09-27T11:29:31;93406.16;;;27.51;57.20
6393;BME280;3229;42.674;23.282;2022-09-27T11:32:15;93389.56;;;27.56;56.62
6393;BME280;3229;42.674;23.282;2022-09-27T11:35:07;93387.88;;;27.70;56.33
6393;BME280;3229;42.674;23.282;2022-09-27T11:37:46;93376.00;;;27.78;56.42
6393;BME280;3229;42.674;23.282;2022-09-27T11:40:25;93380.19;;;27.79;56.22
6393;BME280;3229;42.674;23.282;2022-09-27T11:43:09;93371.59;;;27.73;56.37
6393;BME280;3229;42.674;23.282;2022-09-27T11:45:52;93370.72;;;27.83;56.09
6393;BME280;3229;42.674;23.282;2022-09-27T11:48:30;93366.22;;;27.83;55.98
6393;BME280;3229;42.674;23.282;2022-09-27T11:51:08;93371.00;;;27.81;55.80
6393;BME280;3229;42.674;23.282;2022-09-27T11:53:59;93364.16;;;27.80;55.75
6393;BME280;3229;42.674;23.282;2022-09-27T11:56:42;93360.75;;;27.80;55.42
6393;BME280;3229;42.674;23.282;2022-09-27T11:59:38;93355.50;;;27.80;55.74
6393;BME280;3229;42.674;23.282;2022-09-27T12:02:21;93355.50;;;27.80;55.67
6393;BME280;3229;42.674;23.282;2022-09-27T12:05:00;93346.00;;;27.84;55.46
6393;BME280;3229;42.674;23.282;2022-09-27T12:07:37;93335.72;;;27.87;55.19
6393;BME280;3229;42.674;23.282;2022-09-27T12:10:11;93342.47;;;27.93;54.73
6393;BME280;3229;42.674;23.282;2022-09-27T12:12:43;93333.78;;;27.98;55.02
6393;BME280;3229;42.674;23.282;2022-09-27T12:15:15;93333.88;;;28.12;54.85
6393;BME280;3229;42.674;23.282;2022-09-27T12:17:45;93337.25;;;28.17;54.65
6393;BME280;3229;42.674;23.282;2022-09-27T12:20:18;93332.22;;;28.21;54.17
6393;BME280;3229;42.674;23.282;2022-09-27T12:22:53;93314.03;;;28.24;53.96
6393;BME280;3229;42.674;23.282;2022-09-27T12:25:23;93301.66;;;28.25;54.11
6393;BME280;3229;42.674;23.282;2022-09-27T12:27:54;93288.28;;;28.21;54.20
6393;BME280;3229;42.674;23.282;2022-09-27T12:30:23;93272.28;;;28.18;53.94
6393;BME280;3229;42.674;23.282;2022-09-27T12:32:55;93292.84;;;28.16;54.28
6393;BME280;3229;42.674;23.282;2022-09-27T12:35:28;93274.44;;;28.16;54.17
6393;BME280;3229;42.674;23.282;2022-09-27T12:38:00;93268.44;;;28.10;54.06
6393;BME280;3229;42.674;23.282;2022-09-27T12:40:30;93252.19;;;28.08;53.61
6393;BME280;3229;42.674;23.282;2022-09-27T12:43:02;93256.72;;;28.03;54.11
6393;BME280;3229;42.674;23.282;2022-09-27T12:45:38;93256.50;;;27.99;53.95
6393;BME280;3229;42.674;23.282;2022-09-27T12:48:14;93289.38;;;27.96;53.59
6393;BME280;3229;42.674;23.282;2022-09-27T12:50:48;93240.22;;;27.97;53.89
6393;BME280;3229;42.674;23.282;2022-09-27T12:53:21;93242.75;;;27.83;53.20
6393;BME280;3229;42.674;23.282;2022-09-27T12:56:07;93232.47;;;27.87;52.97
6393;BME280;3229;42.674;23.282;2022-09-27T12:58:50;93250.06;;;27.86;53.22
6393;BME280;3229;42.674;23.282;2022-09-27T13:01:31;93257.72;;;27.83;53.14
6393;BME280;3229;42.674;23.282;2022-09-27T13:04:17;93262.47;;;27.81;52.60
6393;BME280;3229;42.674;23.282;2022-09-27T13:06:58;93278.53;;;27.79;52.71
6393;BME280;3229;42.674;23.282;2022-09-27T13:09:48;93260.13;;;27.79;52.71
6393;BME280;3229;42.674;23.282;2022-09-27T13:12:19;93257.50;;;27.79;52.30
6393;BME280;3229;42.674;23.282;2022-09-27T13:14:57;93258.03;;;27.81;52.41
6393;BME280;3229;42.674;23.282;2022-09-27T13:17:51;93259.56;;;27.82;51.66
6393;BME280;3229;42.674;23.282;2022-09-27T13:20:43;93263.44;;;27.90;51.77
6393;BME280;3229;42.674;23.282;2022-09-27T13:26:46;93237.03;;;28.00;51.10
6393;BME280;3229;42.674;23.282;2022-09-27T13:32:15;93217.31;;;28.03;51.18
6393;BME280;3229;42.674;23.282;2022-09-27T13:34:44;93216.22;;;28.04;50.95
6393;BME280;3229;42.674;23.282;2022-09-27T13:37:45;93215.16;;;28.05;50.81
6393;BME280;3229;42.674;23.282;2022-09-27T13:40:25;93228.06;;;28.01;50.67
6393;BME280;3229;42.674;23.282;2022-09-27T13:45:50;93244.75;;;27.91;50.78
6393;BME280;3229;42.674;23.282;2022-09-27T13:48:24;93269.97;;;27.92;50.88